sensor_id;sensor_type;location;lat;lon;timestamp;P1;durP1;ratioP1;P2;durP2;ratioP2
82415;SDS011;72058;47.782;10.618;2024-03-06T00:00:14;6.40;;;5.80;;
82415;SDS011;72058;47.782;10.618;2024-03-06T00:02:40;7.03;;;6.43;;
82415;SDS011;72058;47.782;10.618;2024-03-06T00:05:05;6.80;;;6.20;;
82415;SDS011;72058;47.782;10.618;2024-03-06T00:07:32;7.43;;;6.70;;
82415;SDS011;72058;47.782;10.618;2024-03-06T00:09:58;6.90;;;6.20;;
82415;SDS011;72058;47.782;10.618;2024-03-06T00:12:23;6.60;;;6.00;;
82415;SDS011;72058;47.782;10.618;2024-03-06T00:14:48;7.22;;;6.63;;
82415;SDS011;72058;47.782;10.618;2024-03-06T00:17:14;6.25;;;5.68;;
82415;SDS011;72058;47.782;10.618;2024-03-06T00:19:39;7.30;;;6.60;;
82415;SDS011;72058;47.782;10.618;2024-03-06T00:22:05;6.65;;;6.15;;
82415;SDS011;72058;47.782;10.618;2024-03-06T00:24:30;7.13;;;6.53;;
82415;SDS011;72058;47.782;10.618;2024-03-06T00:26:57;6.60;;;6.05;;
82415;SDS011;72058;47.782;10.618;2024-03-06T00:29:22;6.80;;;6.20;;
82415;SDS011;72058;47.782;10.618;2024-03-06T00:31:48;7.15;;;6.50;;
82415;SDS011;72058;47.782;10.618;2024-03-06T00:34:13;7.18;;;6.55;;
82415;SDS011;72058;47.782;10.618;2024-03-06T00:36:42;6.77;;;6.17;;
82415;SDS011;72058;47.782;10.618;2024-03-06T00:39:08;6.72;;;6.13;;
82415;SDS011;72058;47.782;10.618;2024-03-06T00:41:34;7.80;;;7.00;;
82415;SDS011;72058;47.782;10.618;2024-03-06T00:44:00;7.68;;;7.05;;
82415;SDS011;72058;47.782;10.618;2024-03-06T00:46:25;6.47;;;5.85;;
82415;SDS011;72058;47.782;10.618;2024-03-06T00:48:51;6.17;;;5.57;;
82415;SDS011;72058;47.782;10.618;2024-03-06T00:51:16;6.78;;;5.93;;
82415;SDS011;72058;47.782;10.618;2024-03-06T00:53:41;5.57;;;5.05;;
82415;SDS011;72058;47.782;10.618;2024-03-06T00:56:07;7.38;;;6.68;;
82415;SDS011;72058;47.782;10.618;2024-03-06T00:58:32;7.50;;;6.93;;
82415;SDS011;72058;47.782;10.618;2024-03-06T01:00:58;7.45;;;6.82;;
82415;SDS011;72058;47.782;10.618;2024-03-06T01:03:23;6.07;;;5.47;;
82415;SDS011;72058;47.782;10.618;2024-03-06T01:05:49;7.05;;;6.45;;
82415;SDS011;72058;47.782;10.618;2024-03-06T01:08:17;8.10;;;7.45;;
82415;SDS011;72058;47.782;10.618;2024-03-06T01:10:42;7.95;;;7.28;;
82415;SDS011;72058;47.782;10.618;2024-03-06T01:13:08;6.00;;;5.30;;
82415;SDS011;72058;47.782;10.618;2024-03-06T01:15:35;7.18;;;6.57;;
82415;SDS011;72058;47.782;10.618;2024-03-06T01:18:01;6.28;;;5.78;;
82415;SDS011;72058;47.782;10.618;2024-03-06T01:20:28;7.10;;;6.50;;
82415;SDS011;72058;47.782;10.618;2024-03-06T01:22:53;5.63;;;5.13;;
82415;SDS011;72058;47.782;10.618;2024-03-06T01:25:18;6.07;;;5.47;;
82415;SDS011;72058;47.782;10.618;2024-03-06T01:27:44;7.20;;;6.60;;
82415;SDS011;72058;47.782;10.618;2024-03-06T01:30:09;6.97;;;6.37;;
82415;SDS011;72058;47.782;10.618;2024-03-06T01:32:34;7.55;;;6.95;;
82415;SDS011;72058;47.782;10.618;2024-03-06T01:35:00;7.10;;;6.50;;
82415;SDS011;72058;47.782;10.618;2024-03-06T01:37:25;7.47;;;6.85;;
82415;SDS011;72058;47.782;10.618;2024-03-06T01:39:51;6.85;;;6.25;;
82415;SDS011;72058;47.782;10.618;2024-03-06T01:42:16;5.72;;;5.22;;
82415;SDS011;72058;47.782;10.618;2024-03-06T01:44:43;6.75;;;6.15;;
82415;SDS011;72058;47.782;10.618;2024-03-06T01:47:08;5.60;;;5.10;;
82415;SDS011;72058;47.782;10.618;2024-03-06T01:49:33;7.80;;;7.10;;
82415;SDS011;72058;47.782;10.618;2024-03-06T01:51:59;7.35;;;6.75;;
82415;SDS011;72058;47.782;10.618;2024-03-06T01:54:26;7.07;;;6.28;;
82415;SDS011;72058;47.782;10.618;2024-03-06T01:56:51;7.43;;;6.82;;
82415;SDS011;72058;47.782;10.618;2024-03-06T01:59:20;6.43;;;5.80;;
82415;SDS011;72058;47.782;10.618;2024-03-06T02:01:46;6.85;;;6.18;;
82415;SDS011;72058;47.782;10.618;2024-03-06T02:04:13;7.75;;;7.13;;
82415;SDS011;72058;47.782;10.618;2024-03-06T02:11:31;7.20;;;6.60;;
82415;SDS011;72058;47.782;10.618;2024-03-06T02:13:57;7.28;;;6.57;;
82415;SDS011;72058;47.782;10.618;2024-03-06T02:16:23;9.25;;;8.50;;
82415;SDS011;72058;47.782;10.618;2024-03-06T02:18:52;7.67;;;6.97;;
82415;SDS011;72058;47.782;10.618;2024-03-06T02:23:48;6.53;;;5.93;;
82415;SDS011;72058;47.782;10.618;2024-03-06T02:26:14;7.20;;;6.50;;
82415;SDS011;72058;47.782;10.618;2024-03-06T02:28:46;6.50;;;5.95;;
82415;SDS011;72058;47.782;10.618;2024-03-06T02:31:15;7.18;;;6.05;;
82415;SDS011;72058;47.782;10.618;2024-03-06T02:33:44;6.00;;;5.50;;
82415;SDS011;72058;47.782;10.618;2024-03-06T02:36:12;6.18;;;5.57;;
82415;SDS011;72058;47.782;10.618;2024-03-06T02:38:37;5.82;;;5.32;;
82415;SDS011;72058;47.782;10.618;2024-03-06T02:41:03;7.05;;;6.55;;
82415;SDS011;72058;47.782;10.618;2024-03-06T02:43:28;6.32;;;5.78;;
82415;SDS011;72058;47.782;10.618;2024-03-06T02:45:53;6.43;;;5.87;;
82415;SDS011;72058;47.782;10.618;2024-03-06T02:48:19;6.73;;;6.23;;
82415;SDS011;72058;47.782;10.618;2024-03-06T02:50:44;6.80;;;6.20;;
82415;SDS011;72058;47.782;10.618;2024-03-06T02:53:09;6.60;;;6.00;;
82415;SDS011;72058;47.782;10.618;2024-03-06T02:55:35;6.82;;;6.32;;
82415;SDS011;72058;47.782;10.618;2024-03-06T02:58:03;6.40;;;5.63;;
82415;SDS011;72058;47.782;10.618;2024-03-06T03:00:29;6.03;;;5.53;;
82415;SDS011;72058;47.782;10.618;2024-03-06T03:02:55;6.20;;;5.70;;
82415;SDS011;72058;47.782;10.618;2024-03-06T03:05:20;7.27;;;6.67;;
82415;SDS011;72058;47.782;10.618;2024-03-06T03:07:46;7.40;;;5.43;;
82415;SDS011;72058;47.782;10.618;2024-03-06T03:10:11;6.20;;;5.70;;
82415;SDS011;72058;47.782;10.618;2024-03-06T03:12:40;5.10;;;4.68;;
82415;SDS011;72058;47.782;10.618;2024-03-06T03:15:05;5.80;;;4.43;;
82415;SDS011;72058;47.782;10.618;2024-03-06T03:17:31;6.50;;;5.82;;
82415;SDS011;72058;47.782;10.618;2024-03-06T03:19:58;7.20;;;5.63;;
82415;SDS011;72058;47.782;10.618;2024-03-06T03:22:24;5.55;;;5.10;;
82415;SDS011;72058;47.782;10.618;2024-03-06T03:24:49;5.57;;;5.07;;
82415;SDS011;72058;47.782;10.618;2024-03-06T03:27:14;6.33;;;5.83;;
82415;SDS011;72058;47.782;10.618;2024-03-06T03:29:40;5.60;;;5.10;;
82415;SDS011;72058;47.782;10.618;2024-03-06T03:32:06;7.68;;;7.18;;
82415;SDS011;72058;47.782;10.618;2024-03-06T03:34:32;5.70;;;5.20;;
82415;SDS011;72058;47.782;10.618;2024-03-06T03:36:59;7.40;;;6.80;;
82415;SDS011;72058;47.782;10.618;2024-03-06T03:39:24;8.00;;;7.20;;
82415;SDS011;72058;47.782;10.618;2024-03-06T03:41:50;8.10;;;7.40;;
82415;SDS011;72058;47.782;10.618;2024-03-06T03:44:15;5.45;;;4.95;;
82415;SDS011;72058;47.782;10.618;2024-03-06T03:46:43;6.25;;;5.65;;
82415;SDS011;72058;47.782;10.618;2024-03-06T03:49:09;6.03;;;5.53;;
82415;SDS011;72058;47.782;10.618;2024-03-06T03:51:38;5.18;;;4.72;;
82415;SDS011;72058;47.782;10.618;2024-03-06T03:54:04;6.00;;;5.45;;
82415;SDS011;72058;47.782;10.618;2024-03-06T03:56:30;5.25;;;4.75;;
82415;SDS011;72058;47.782;10.618;2024-03-06T03:58:56;6.00;;;5.50;;
82415;SDS011;72058;47.782;10.618;2024-03-06T04:01:23;5.68;;;5.00;;
82415;SDS011;72058;47.782;10.618;2024-03-06T04:03:48;7.25;;;6.57;;
82415;SDS011;72058;47.782;10.618;2024-03-06T04:06:14;5.97;;;5.47;;
82415;SDS011;72058;47.782;10.618;2024-03-06T04:08:39;6.40;;;5.90;;
82415;SDS011;72058;47.782;10.618;2024-03-06T04:11:05;5.95;;;5.45;;
82415;SDS011;72058;47.782;10.618;2024-03-06T04:13:30;5.93;;;5.37;;
82415;SDS011;72058;47.782;10.618;2024-03-06T04:16:00;5.82;;;5.32;;
82415;SDS011;72058;47.782;10.618;2024-03-06T04:18:25;4.32;;;3.92;;
82415;SDS011;72058;47.782;10.618;2024-03-06T04:20:51;5.45;;;4.97;;
82415;SDS011;72058;47.782;10.618;2024-03-06T04:23:16;4.40;;;3.70;;
82415;SDS011;72058;47.782;10.618;2024-03-06T04:25:42;4.85;;;4.45;;
82415;SDS011;72058;47.782;10.618;2024-03-06T04:28:08;5.22;;;4.72;;
82415;SDS011;72058;47.782;10.618;2024-03-06T04:30:33;4.50;;;4.10;;
82415;SDS011;72058;47.782;10.618;2024-03-06T04:32:59;4.80;;;4.40;;
82415;SDS011;72058;47.782;10.618;2024-03-06T04:35:24;5.83;;;5.47;;
82415;SDS011;72058;47.782;10.618;2024-03-06T04:37:50;4.60;;;4.30;;
82415;SDS011;72058;47.782;10.618;2024-03-06T04:40:15;5.13;;;4.77;;
82415;SDS011;72058;47.782;10.618;2024-03-06T04:42:44;6.53;;;6.03;;
82415;SDS011;72058;47.782;10.618;2024-03-06T04:45:11;4.93;;;4.53;;
82415;SDS011;72058;47.782;10.618;2024-03-06T04:47:40;4.45;;;4.15;;
82415;SDS011;72058;47.782;10.618;2024-03-06T04:50:08;4.80;;;4.40;;
82415;SDS011;72058;47.782;10.618;2024-03-06T04:52:35;4.65;;;4.30;;
82415;SDS011;72058;47.782;10.618;2024-03-06T04:55:01;5.15;;;4.75;;
82415;SDS011;72058;47.782;10.618;2024-03-06T04:57:26;5.47;;;5.07;;
82415;SDS011;72058;47.782;10.618;2024-03-06T04:59:53;5.10;;;4.18;;
82415;SDS011;72058;47.782;10.618;2024-03-06T05:02:18;4.60;;;4.30;;
82415;SDS011;72058;47.782;10.618;2024-03-06T05:04:43;5.27;;;4.77;;
82415;SDS011;72058;47.782;10.618;2024-03-06T05:07:09;5.47;;;4.97;;
82415;SDS011;72058;47.782;10.618;2024-03-06T05:09:34;5.07;;;4.78;;
82415;SDS011;72058;47.782;10.618;2024-03-06T05:12:00;5.50;;;5.05;;
82415;SDS011;72058;47.782;10.618;2024-03-06T05:14:25;5.70;;;5.30;;
82415;SDS011;72058;47.782;10.618;2024-03-06T05:16:51;5.00;;;4.57;;
82415;SDS011;72058;47.782;10.618;2024-03-06T05:19:16;6.23;;;5.67;;
82415;SDS011;72058;47.782;10.618;2024-03-06T05:21:41;6.90;;;6.23;;
82415;SDS011;72058;47.782;10.618;2024-03-06T05:24:07;5.17;;;4.60;;
82415;SDS011;72058;47.782;10.618;2024-03-06T05:26:33;6.40;;;5.90;;
82415;SDS011;72058;47.782;10.618;2024-03-06T05:28:59;5.30;;;4.90;;
82415;SDS011;72058;47.782;10.618;2024-03-06T05:31:24;4.60;;;4.20;;
82415;SDS011;72058;47.782;10.618;2024-03-06T05:33:50;5.22;;;4.88;;
82415;SDS011;72058;47.782;10.618;2024-03-06T05:36:15;6.50;;;5.93;;
82415;SDS011;72058;47.782;10.618;2024-03-06T05:38:42;6.70;;;6.07;;
82415;SDS011;72058;47.782;10.618;2024-03-06T05:41:08;6.50;;;5.90;;
82415;SDS011;72058;47.782;10.618;2024-03-06T05:43:36;5.35;;;4.90;;
82415;SDS011;72058;47.782;10.618;2024-03-06T05:46:01;6.32;;;5.72;;
82415;SDS011;72058;47.782;10.618;2024-03-06T05:48:27;6.45;;;5.95;;
82415;SDS011;72058;47.782;10.618;2024-03-06T05:50:53;6.83;;;5.83;;
82415;SDS011;72058;47.782;10.618;2024-03-06T05:53:18;6.72;;;6.13;;
82415;SDS011;72058;47.782;10.618;2024-03-06T05:55:44;6.15;;;5.57;;
82415;SDS011;72058;47.782;10.618;2024-03-06T05:58:10;6.50;;;6.00;;
82415;SDS011;72058;47.782;10.618;2024-03-06T06:00:35;8.55;;;7.55;;
82415;SDS011;72058;47.782;10.618;2024-03-06T06:03:01;19.27;;;14.47;;
82415;SDS011;72058;47.782;10.618;2024-03-06T06:05:26;14.00;;;10.93;;
82415;SDS011;72058;47.782;10.618;2024-03-06T06:07:51;12.73;;;11.43;;
82415;SDS011;72058;47.782;10.618;2024-03-06T06:10:17;11.50;;;10.40;;
82415;SDS011;72058;47.782;10.618;2024-03-06T06:12:43;10.32;;;7.38;;
82415;SDS011;72058;47.782;10.618;2024-03-06T06:15:09;10.50;;;9.38;;
82415;SDS011;72058;47.782;10.618;2024-03-06T06:17:35;9.85;;;8.93;;
82415;SDS011;72058;47.782;10.618;2024-03-06T06:20:03;9.80;;;8.80;;
82415;SDS011;72058;47.782;10.618;2024-03-06T06:22:34;7.95;;;7.25;;
82415;SDS011;72058;47.782;10.618;2024-03-06T06:25:00;6.93;;;6.32;;
82415;SDS011;72058;47.782;10.618;2024-03-06T06:27:26;6.90;;;6.30;;
82415;SDS011;72058;47.782;10.618;2024-03-06T06:29:52;6.72;;;6.13;;
82415;SDS011;72058;47.782;10.618;2024-03-06T06:32:20;6.35;;;5.70;;
82415;SDS011;72058;47.782;10.618;2024-03-06T06:34:45;7.10;;;6.43;;
82415;SDS011;72058;47.782;10.618;2024-03-06T06:37:11;7.05;;;6.38;;
82415;SDS011;72058;47.782;10.618;2024-03-06T06:39:36;6.90;;;6.20;;
82415;SDS011;72058;47.782;10.618;2024-03-06T06:42:01;10.87;;;8.80;;
82415;SDS011;72058;47.782;10.618;2024-03-06T06:44:28;7.85;;;7.15;;
82415;SDS011;72058;47.782;10.618;2024-03-06T06:46:53;7.63;;;6.83;;
82415;SDS011;72058;47.782;10.618;2024-03-06T06:49:18;7.60;;;6.90;;
82415;SDS011;72058;47.782;10.618;2024-03-06T06:51:44;6.85;;;6.25;;
82415;SDS011;72058;47.782;10.618;2024-03-06T06:54:09;6.17;;;5.50;;
82415;SDS011;72058;47.782;10.618;2024-03-06T06:56:34;7.38;;;6.68;;
82415;SDS011;72058;47.782;10.618;2024-03-06T06:59:00;6.38;;;5.78;;
82415;SDS011;72058;47.782;10.618;2024-03-06T07:01:26;8.07;;;6.72;;
82415;SDS011;72058;47.782;10.618;2024-03-06T07:03:52;6.13;;;5.25;;
82415;SDS011;72058;47.782;10.618;2024-03-06T07:06:17;6.60;;;5.90;;
82415;SDS011;72058;47.782;10.618;2024-03-06T07:08:43;5.93;;;5.43;;
82415;SDS011;72058;47.782;10.618;2024-03-06T07:11:08;8.23;;;6.67;;
82415;SDS011;72058;47.782;10.618;2024-03-06T07:13:33;8.70;;;7.03;;
82415;SDS011;72058;47.782;10.618;2024-03-06T07:15:59;9.00;;;8.07;;
82415;SDS011;72058;47.782;10.618;2024-03-06T07:18:24;8.50;;;7.60;;
82415;SDS011;72058;47.782;10.618;2024-03-06T07:20:49;8.97;;;6.90;;
82415;SDS011;72058;47.782;10.618;2024-03-06T07:23:15;10.32;;;9.23;;
82415;SDS011;72058;47.782;10.618;2024-03-06T07:25:40;8.05;;;7.18;;
82415;SDS011;72058;47.782;10.618;2024-03-06T07:28:05;8.20;;;7.37;;
82415;SDS011;72058;47.782;10.618;2024-03-06T07:30:31;7.78;;;7.05;;
82415;SDS011;72058;47.782;10.618;2024-03-06T07:32:56;7.10;;;6.40;;
82415;SDS011;72058;47.782;10.618;2024-03-06T07:35:22;7.43;;;6.75;;
82415;SDS011;72058;47.782;10.618;2024-03-06T07:37:48;6.63;;;6.05;;
82415;SDS011;72058;47.782;10.618;2024-03-06T07:40:13;6.38;;;5.88;;
82415;SDS011;72058;47.782;10.618;2024-03-06T07:42:39;7.63;;;6.93;;
82415;SDS011;72058;47.782;10.618;2024-03-06T07:45:05;7.53;;;6.83;;
82415;SDS011;72058;47.782;10.618;2024-03-06T07:47:34;7.80;;;7.07;;
82415;SDS011;72058;47.782;10.618;2024-03-06T07:49:59;7.72;;;7.05;;
82415;SDS011;72058;47.782;10.618;2024-03-06T07:52:24;7.43;;;6.73;;
82415;SDS011;72058;47.782;10.618;2024-03-06T07:54:50;8.40;;;5.77;;
82415;SDS011;72058;47.782;10.618;2024-03-06T07:57:15;6.87;;;6.30;;
82415;SDS011;72058;47.782;10.618;2024-03-06T07:59:40;6.57;;;5.97;;
82415;SDS011;72058;47.782;10.618;2024-03-06T08:02:06;7.23;;;6.63;;
82415;SDS011;72058;47.782;10.618;2024-03-06T08:04:32;8.50;;;7.35;;
82415;SDS011;72058;47.782;10.618;2024-03-06T08:06:58;8.63;;;7.72;;
82415;SDS011;72058;47.782;10.618;2024-03-06T08:09:23;8.57;;;7.68;;
82415;SDS011;72058;47.782;10.618;2024-03-06T08:11:50;8.18;;;7.50;;
82415;SDS011;72058;47.782;10.618;2024-03-06T08:14:19;6.20;;;5.70;;
82415;SDS011;72058;47.782;10.618;2024-03-06T08:16:44;5.50;;;5.00;;
82415;SDS011;72058;47.782;10.618;2024-03-06T08:19:10;5.70;;;5.30;;
82415;SDS011;72058;47.782;10.618;2024-03-06T08:21:35;4.97;;;4.45;;
82415;SDS011;72058;47.782;10.618;2024-03-06T08:24:01;4.45;;;4.15;;
82415;SDS011;72058;47.782;10.618;2024-03-06T08:26:26;6.37;;;5.63;;
82415;SDS011;72058;47.782;10.618;2024-03-06T08:28:51;5.13;;;4.73;;
82415;SDS011;72058;47.782;10.618;2024-03-06T08:31:17;4.50;;;4.20;;
82415;SDS011;72058;47.782;10.618;2024-03-06T08:33:42;6.00;;;5.50;;
82415;SDS011;72058;47.782;10.618;2024-03-06T08:36:09;4.97;;;4.68;;
82415;SDS011;72058;47.782;10.618;2024-03-06T08:38:34;4.57;;;4.28;;
82415;SDS011;72058;47.782;10.618;2024-03-06T08:41:00;5.00;;;4.60;;
82415;SDS011;72058;47.782;10.618;2024-03-06T08:43:25;6.03;;;5.63;;
82415;SDS011;72058;47.782;10.618;2024-03-06T08:45:51;3.67;;;3.38;;
82415;SDS011;72058;47.782;10.618;2024-03-06T08:48:16;5.65;;;5.25;;
82415;SDS011;72058;47.782;10.618;2024-03-06T08:50:42;6.27;;;5.77;;
82415;SDS011;72058;47.782;10.618;2024-03-06T08:53:07;6.13;;;5.70;;
82415;SDS011;72058;47.782;10.618;2024-03-06T08:55:34;6.13;;;5.15;;
82415;SDS011;72058;47.782;10.618;2024-03-06T08:57:59;4.68;;;4.32;;
82415;SDS011;72058;47.782;10.618;2024-03-06T09:00:26;5.68;;;5.28;;
82415;SDS011;72058;47.782;10.618;2024-03-06T09:02:51;6.43;;;5.93;;
82415;SDS011;72058;47.782;10.618;2024-03-06T09:05:18;4.97;;;4.57;;
82415;SDS011;72058;47.782;10.618;2024-03-06T09:07:43;7.87;;;4.73;;
82415;SDS011;72058;47.782;10.618;2024-03-06T09:10:09;6.10;;;5.60;;
82415;SDS011;72058;47.782;10.618;2024-03-06T09:12:35;5.60;;;4.97;;
82415;SDS011;72058;47.782;10.618;2024-03-06T09:15:02;4.38;;;4.03;;
82415;SDS011;72058;47.782;10.618;2024-03-06T09:17:28;3.78;;;3.47;;
82415;SDS011;72058;47.782;10.618;2024-03-06T09:19:54;4.15;;;3.70;;
82415;SDS011;72058;47.782;10.618;2024-03-06T09:22:20;4.93;;;4.53;;
82415;SDS011;72058;47.782;10.618;2024-03-06T09:24:46;4.75;;;4.45;;
82415;SDS011;72058;47.782;10.618;2024-03-06T09:27:13;3.95;;;3.65;;
82415;SDS011;72058;47.782;10.618;2024-03-06T09:29:39;3.88;;;3.58;;
82415;SDS011;72058;47.782;10.618;2024-03-06T09:32:04;3.92;;;3.63;;
82415;SDS011;72058;47.782;10.618;2024-03-06T09:34:30;4.30;;;4.00;;
82415;SDS011;72058;47.782;10.618;2024-03-06T09:36:55;5.00;;;4.60;;
82415;SDS011;72058;47.782;10.618;2024-03-06T09:39:21;5.00;;;4.67;;
82415;SDS011;72058;47.782;10.618;2024-03-06T09:41:47;3.55;;;3.25;;
82415;SDS011;72058;47.782;10.618;2024-03-06T09:44:14;4.25;;;3.95;;
82415;SDS011;72058;47.782;10.618;2024-03-06T09:46:43;4.45;;;4.15;;
82415;SDS011;72058;47.782;10.618;2024-03-06T09:49:10;4.00;;;3.80;;
82415;SDS011;72058;47.782;10.618;2024-03-06T09:51:39;4.05;;;3.75;;
82415;SDS011;72058;47.782;10.618;2024-03-06T09:54:09;4.05;;;3.85;;
82415;SDS011;72058;47.782;10.618;2024-03-06T09:56:36;4.57;;;4.28;;
82415;SDS011;72058;47.782;10.618;2024-03-06T09:59:01;4.13;;;3.83;;
82415;SDS011;72058;47.782;10.618;2024-03-06T10:01:28;4.28;;;4.03;;
82415;SDS011;72058;47.782;10.618;2024-03-06T10:03:56;4.40;;;4.10;;
82415;SDS011;72058;47.782;10.618;2024-03-06T10:06:21;5.45;;;5.07;;
82415;SDS011;72058;47.782;10.618;2024-03-06T10:08:47;4.03;;;3.83;;
82415;SDS011;72058;47.782;10.618;2024-03-06T10:11:14;3.50;;;3.30;;
82415;SDS011;72058;47.782;10.618;2024-03-06T10:13:39;3.95;;;3.65;;
82415;SDS011;72058;47.782;10.618;2024-03-06T10:16:05;4.27;;;3.97;;
82415;SDS011;72058;47.782;10.618;2024-03-06T10:18:35;5.05;;;4.65;;
82415;SDS011;72058;47.782;10.618;2024-03-06T10:21:03;5.10;;;4.80;;
82415;SDS011;72058;47.782;10.618;2024-03-06T10:25:56;5.13;;;4.82;;
82415;SDS011;72058;47.782;10.618;2024-03-06T10:28:22;4.50;;;4.20;;
82415;SDS011;72058;47.782;10.618;2024-03-06T10:35:41;5.40;;;5.00;;
82415;SDS011;72058;47.782;10.618;2024-03-06T10:38:08;6.00;;;5.53;;
82415;SDS011;72058;47.782;10.618;2024-03-06T10:40:36;6.75;;;6.25;;
82415;SDS011;72058;47.782;10.618;2024-03-06T10:43:03;5.90;;;5.28;;
82415;SDS011;72058;47.782;10.618;2024-03-06T10:48:15;6.47;;;5.97;;
82415;SDS011;72058;47.782;10.618;2024-03-06T10:50:42;5.30;;;4.90;;
82415;SDS011;72058;47.782;10.618;2024-03-06T10:53:09;4.22;;;3.90;;
82415;SDS011;72058;47.782;10.618;2024-03-06T10:55:37;5.07;;;4.68;;
82415;SDS011;72058;47.782;10.618;2024-03-06T10:58:05;5.82;;;5.32;;
82415;SDS011;72058;47.782;10.618;2024-03-06T11:00:39;6.25;;;5.65;;
82415;SDS011;72058;47.782;10.618;2024-03-06T11:03:06;5.88;;;5.28;;
82415;SDS011;72058;47.782;10.618;2024-03-06T11:05:40;4.95;;;4.55;;
82415;SDS011;72058;47.782;10.618;2024-03-06T11:08:10;4.47;;;4.18;;
82415;SDS011;72058;47.782;10.618;2024-03-06T11:10:37;6.40;;;4.53;;
82415;SDS011;72058;47.782;10.618;2024-03-06T11:15:46;4.60;;;4.20;;
82415;SDS011;72058;47.782;10.618;2024-03-06T11:23:31;4.47;;;4.18;;
82415;SDS011;72058;47.782;10.618;2024-03-06T11:28:29;5.30;;;4.90;;
82415;SDS011;72058;47.782;10.618;2024-03-06T11:31:03;6.20;;;5.50;;
82415;SDS011;72058;47.782;10.618;2024-03-06T11:33:36;5.40;;;4.90;;
82415;SDS011;72058;47.782;10.618;2024-03-06T11:41:46;5.15;;;4.85;;
82415;SDS011;72058;47.782;10.618;2024-03-06T11:44:16;4.70;;;4.30;;
82415;SDS011;72058;47.782;10.618;2024-03-06T11:49:20;4.83;;;4.53;;
82415;SDS011;72058;47.782;10.618;2024-03-06T11:51:49;5.43;;;4.93;;
82415;SDS011;72058;47.782;10.618;2024-03-06T11:54:15;5.70;;;5.25;;
82415;SDS011;72058;47.782;10.618;2024-03-06T11:56:44;6.43;;;5.93;;
82415;SDS011;72058;47.782;10.618;2024-03-06T11:59:11;4.70;;;4.20;;
82415;SDS011;72058;47.782;10.618;2024-03-06T12:01:37;5.20;;;4.72;;
82415;SDS011;72058;47.782;10.618;2024-03-06T12:04:03;5.55;;;5.05;;
82415;SDS011;72058;47.782;10.618;2024-03-06T12:06:29;5.00;;;4.60;;
82415;SDS011;72058;47.782;10.618;2024-03-06T12:08:57;4.40;;;4.10;;
82415;SDS011;72058;47.782;10.618;2024-03-06T12:11:23;4.53;;;4.22;;
82415;SDS011;72058;47.782;10.618;2024-03-06T12:18:42;3.40;;;3.15;;
82415;SDS011;72058;47.782;10.618;2024-03-06T12:21:07;3.13;;;2.92;;
82415;SDS011;72058;47.782;10.618;2024-03-06T12:23:33;4.47;;;4.18;;
82415;SDS011;72058;47.782;10.618;2024-03-06T12:26:05;3.72;;;3.53;;
82415;SDS011;72058;47.782;10.618;2024-03-06T12:28:31;3.50;;;3.30;;
82415;SDS011;72058;47.782;10.618;2024-03-06T12:30:57;3.92;;;3.63;;
82415;SDS011;72058;47.782;10.618;2024-03-06T12:33:26;3.92;;;3.63;;
82415;SDS011;72058;47.782;10.618;2024-03-06T12:36:04;3.45;;;3.15;;
82415;SDS011;72058;47.782;10.618;2024-03-06T12:38:31;4.10;;;3.80;;
82415;SDS011;72058;47.782;10.618;2024-03-06T12:40:57;4.00;;;3.70;;
82415;SDS011;72058;47.782;10.618;2024-03-06T12:43:23;4.47;;;4.18;;
82415;SDS011;72058;47.782;10.618;2024-03-06T12:45:49;3.75;;;3.55;;
82415;SDS011;72058;47.782;10.618;2024-03-06T12:48:14;4.07;;;3.88;;
82415;SDS011;72058;47.782;10.618;2024-03-06T12:50:40;2.65;;;2.45;;
82415;SDS011;72058;47.782;10.618;2024-03-06T12:53:07;5.05;;;4.65;;
82415;SDS011;72058;47.782;10.618;2024-03-06T12:55:32;4.40;;;4.10;;
82415;SDS011;72058;47.782;10.618;2024-03-06T12:57:58;4.73;;;4.33;;
82415;SDS011;72058;47.782;10.618;2024-03-06T13:00:23;4.25;;;3.85;;
82415;SDS011;72058;47.782;10.618;2024-03-06T13:02:49;3.75;;;3.42;;
82415;SDS011;72058;47.782;10.618;2024-03-06T13:05:17;4.07;;;3.78;;
82415;SDS011;72058;47.782;10.618;2024-03-06T13:07:44;3.95;;;3.75;;
82415;SDS011;72058;47.782;10.618;2024-03-06T13:10:10;5.13;;;4.82;;
82415;SDS011;72058;47.782;10.618;2024-03-06T13:12:37;4.40;;;4.20;;
82415;SDS011;72058;47.782;10.618;2024-03-06T13:15:03;3.60;;;3.35;;
82415;SDS011;72058;47.782;10.618;2024-03-06T13:17:29;3.72;;;3.50;;
82415;SDS011;72058;47.782;10.618;2024-03-06T13:19:55;3.38;;;3.17;;
82415;SDS011;72058;47.782;10.618;2024-03-06T13:22:21;3.33;;;3.13;;
82415;SDS011;72058;47.782;10.618;2024-03-06T13:24:47;3.40;;;3.20;;
82415;SDS011;72058;47.782;10.618;2024-03-06T13:27:13;3.05;;;2.85;;
82415;SDS011;72058;47.782;10.618;2024-03-06T13:29:38;6.85;;;6.07;;
82415;SDS011;72058;47.782;10.618;2024-03-06T13:32:04;3.85;;;3.65;;
82415;SDS011;72058;47.782;10.618;2024-03-06T13:34:31;3.53;;;3.33;;
82415;SDS011;72058;47.782;10.618;2024-03-06T13:36:56;3.35;;;3.08;;
82415;SDS011;72058;47.782;10.618;2024-03-06T13:39:22;3.25;;;3.05;;
82415;SDS011;72058;47.782;10.618;2024-03-06T13:41:48;2.92;;;2.72;;
82415;SDS011;72058;47.782;10.618;2024-03-06T13:44:14;3.40;;;3.20;;
82415;SDS011;72058;47.782;10.618;2024-03-06T13:46:39;3.40;;;3.10;;
82415;SDS011;72058;47.782;10.618;2024-03-06T13:49:05;3.35;;;3.15;;
82415;SDS011;72058;47.782;10.618;2024-03-06T13:51:30;3.37;;;3.17;;
82415;SDS011;72058;47.782;10.618;2024-03-06T13:53:55;6.60;;;6.30;;
82415;SDS011;72058;47.782;10.618;2024-03-06T13:56:21;3.63;;;3.43;;
82415;SDS011;72058;47.782;10.618;2024-03-06T13:58:46;3.88;;;3.67;;
82415;SDS011;72058;47.782;10.618;2024-03-06T14:01:11;3.27;;;3.07;;
82415;SDS011;72058;47.782;10.618;2024-03-06T14:03:37;2.67;;;2.47;;
82415;SDS011;72058;47.782;10.618;2024-03-06T14:08:30;4.18;;;3.88;;
82415;SDS011;72058;47.782;10.618;2024-03-06T14:10:55;3.37;;;3.17;;
82415;SDS011;72058;47.782;10.618;2024-03-06T14:13:20;3.50;;;3.30;;
82415;SDS011;72058;47.782;10.618;2024-03-06T14:15:46;4.47;;;4.20;;
82415;SDS011;72058;47.782;10.618;2024-03-06T14:18:13;4.20;;;3.95;;
82415;SDS011;72058;47.782;10.618;2024-03-06T14:20:38;4.47;;;4.18;;
82415;SDS011;72058;47.782;10.618;2024-03-06T14:23:04;4.22;;;3.92;;
82415;SDS011;72058;47.782;10.618;2024-03-06T14:25:29;4.55;;;4.25;;
82415;SDS011;72058;47.782;10.618;2024-03-06T14:27:55;4.18;;;3.88;;
82415;SDS011;72058;47.782;10.618;2024-03-06T14:30:20;3.20;;;3.00;;
82415;SDS011;72058;47.782;10.618;2024-03-06T14:32:46;4.18;;;3.88;;
82415;SDS011;72058;47.782;10.618;2024-03-06T14:35:11;3.23;;;3.03;;
82415;SDS011;72058;47.782;10.618;2024-03-06T14:37:37;3.67;;;3.38;;
82415;SDS011;72058;47.782;10.618;2024-03-06T14:40:03;4.60;;;4.30;;
82415;SDS011;72058;47.782;10.618;2024-03-06T14:42:33;3.65;;;3.38;;
82415;SDS011;72058;47.782;10.618;2024-03-06T14:44:59;4.18;;;3.92;;
82415;SDS011;72058;47.782;10.618;2024-03-06T14:47:24;5.87;;;5.57;;
82415;SDS011;72058;47.782;10.618;2024-03-06T14:49:51;4.72;;;4.43;;
82415;SDS011;72058;47.782;10.618;2024-03-06T14:52:16;5.47;;;5.18;;
82415;SDS011;72058;47.782;10.618;2024-03-06T14:54:42;4.83;;;4.53;;
82415;SDS011;72058;47.782;10.618;2024-03-06T14:57:08;5.45;;;5.07;;
82415;SDS011;72058;47.782;10.618;2024-03-06T14:59:33;6.22;;;5.82;;
82415;SDS011;72058;47.782;10.618;2024-03-06T15:01:59;5.10;;;4.65;;
82415;SDS011;72058;47.782;10.618;2024-03-06T15:04:24;4.33;;;4.07;;
82415;SDS011;72058;47.782;10.618;2024-03-06T15:06:49;4.35;;;4.05;;
82415;SDS011;72058;47.782;10.618;2024-03-06T15:09:15;3.95;;;3.75;;